sensor_id;sensor_type;location;lat;lon;timestamp;P1;durP1;ratioP1;P2;durP2;ratioP2
77535;SDS011;70085;44.530;0.094;2024-03-22T00:07:17;7.80;;;7.50;;
77535;SDS011;70085;44.530;0.094;2024-03-22T00:22:51;9.00;;;8.70;;
77535;SDS011;70085;44.530;0.094;2024-03-22T00:38:23;8.30;;;8.00;;
77535;SDS011;70085;44.530;0.094;2024-03-22T00:53:57;8.73;;;8.43;;
77535;SDS011;70085;44.530;0.094;2024-03-22T01:09:29;8.73;;;8.43;;
77535;SDS011;70085;44.530;0.094;2024-03-22T01:25:02;54.07;;;46.53;;
77535;SDS011;70085;44.530;0.094;2024-03-22T01:40:35;8.63;;;8.33;;
77535;SDS011;70085;44.530;0.094;2024-03-22T01:56:08;8.93;;;8.63;;
77535;SDS011;70085;44.530;0.094;2024-03-22T02:11:40;9.50;;;9.10;;
77535;SDS011;70085;44.530;0.094;2024-03-22T02:27:14;9.87;;;9.47;;
77535;SDS011;70085;44.530;0.094;2024-03-22T02:42:47;9.73;;;9.33;;
77535;SDS011;70085;44.530;0.094;2024-03-22T02:58:21;9.37;;;8.97;;
77535;SDS011;70085;44.530;0.094;2024-03-22T03:13:54;10.70;;;10.30;;
77535;SDS011;70085;44.530;0.094;2024-03-22T03:29:28;9.07;;;8.77;;
77535;SDS011;70085;44.530;0.094;2024-03-22T03:45:01;8.70;;;8.40;;
77535;SDS011;70085;44.530;0.094;2024-03-22T04:00:34;9.73;;;9.33;;
77535;SDS011;70085;44.530;0.094;2024-03-22T04:16:06;9.93;;;9.53;;
77535;SDS011;70085;44.530;0.094;2024-03-22T04:31:40;13.37;;;12.00;;
77535;SDS011;70085;44.530;0.094;2024-03-22T04:47:14;8.73;;;8.43;;
77535;SDS011;70085;44.530;0.094;2024-03-22T05:02:46;10.03;;;9.63;;
77535;SDS011;70085;44.530;0.094;2024-03-22T05:18:18;8.97;;;8.67;;
77535;SDS011;70085;44.530;0.094;2024-03-22T05:33:53;10.43;;;10.03;;
77535;SDS011;70085;44.530;0.094;2024-03-22T05:49:27;9.30;;;8.90;;
77535;SDS011;70085;44.530;0.094;2024-03-22T06:05:01;9.33;;;8.97;;
77535;SDS011;70085;44.530;0.094;2024-03-22T06:20:34;10.67;;;10.27;;
77535;SDS011;70085;44.530;0.094;2024-03-22T06:36:08;8.90;;;8.60;;
77535;SDS011;70085;44.530;0.094;2024-03-22T06:51:40;8.10;;;7.80;;
77535;SDS011;70085;44.530;0.094;2024-03-22T07:07:14;8.73;;;8.43;;
77535;SDS011;70085;44.530;0.094;2024-03-22T07:22:47;7.80;;;7.50;;
77535;SDS011;70085;44.530;0.094;2024-03-22T07:38:21;18.63;;;17.93;;
77535;SDS011;70085;44.530;0.094;2024-03-22T07:53:56;20.83;;;20.03;;
77535;SDS011;70085;44.530;0.094;2024-03-22T08:09:31;23.87;;;22.93;;
77535;SDS011;70085;44.530;0.094;2024-03-22T08:25:08;18.60;;;17.90;;
77535;SDS011;70085;44.530;0.094;2024-03-22T08:40:41;10.10;;;9.10;;
77535;SDS011;70085;44.530;0.094;2024-03-22T08:56:23;9.67;;;7.20;;
77535;SDS011;70085;44.530;0.094;2024-03-22T09:11:59;8.20;;;6.10;;
77535;SDS011;70085;44.530;0.094;2024-03-22T09:27:34;6.63;;;5.20;;
77535;SDS011;70085;44.530;0.094;2024-03-22T09:43:07;8.30;;;4.90;;
77535;SDS011;70085;44.530;0.094;2024-03-22T09:58:40;6.80;;;5.13;;
77535;SDS011;70085;44.530;0.094;2024-03-22T10:14:14;7.70;;;4.73;;
77535;SDS011;70085;44.530;0.094;2024-03-22T10:29:49;5.23;;;4.63;;
77535;SDS011;70085;44.530;0.094;2024-03-22T10:45:25;8.23;;;4.40;;
77535;SDS011;70085;44.530;0.094;2024-03-22T11:00:53;13.73;;;10.87;;
77535;SDS011;70085;44.530;0.094;2024-03-22T11:16:28;7.73;;;6.97;;
77535;SDS011;70085;44.530;0.094;2024-03-22T11:32:01;7.80;;;4.30;;
77535;SDS011;70085;44.530;0.094;2024-03-22T11:47:36;6.67;;;6.10;;
77535;SDS011;70085;44.530;0.094;2024-03-22T12:03:08;-1.00;;;-1.00;;
77535;SDS011;70085;44.530;0.094;2024-03-22T12:18:41;7.60;;;6.97;;
77535;SDS011;70085;44.530;0.094;2024-03-22T12:34:15;8.90;;;5.03;;
77535;SDS011;70085;44.530;0.094;2024-03-22T12:49:48;8.57;;;4.73;;
77535;SDS011;70085;44.530;0.094;2024-03-22T13:05:20;8.27;;;4.13;;
77535;SDS011;70085;44.530;0.094;2024-03-22T13:20:54;-1.00;;;-1.00;;
77535;SDS011;70085;44.530;0.094;2024-03-22T13:36:26;6.90;;;3.50;;
77535;SDS011;70085;44.530;0.094;2024-03-22T13:52:00;7.53;;;3.70;;
77535;SDS011;70085;44.530;0.094;2024-03-22T14:07:31;12.20;;;4.73;;
77535;SDS011;70085;44.530;0.094;2024-03-22T14:23:00;5.37;;;4.87;;
77535;SDS011;70085;44.530;0.094;2024-03-22T14:38:33;9.60;;;4.77;;
77535;SDS011;70085;44.530;0.094;2024-03-22T14:54:05;10.67;;;9.50;;
77535;SDS011;70085;44.530;0.094;2024-03-22T15:09:39;15.70;;;14.80;;
77535;SDS011;70085;44.530;0.094;2024-03-22T15:25:10;13.23;;;12.10;;
77535;SDS011;70085;44.530;0.094;2024-03-22T15:40:43;14.63;;;13.63;;
77535;SDS011;70085;44.530;0.094;2024-03-22T15:56:14;17.83;;;16.77;;
77535;SDS011;70085;44.530;0.094;2024-03-22T16:11:49;17.13;;;16.07;;
77535;SDS011;70085;44.530;0.094;2024-03-22T16:27:22;19.70;;;18.30;;
77535;SDS011;70085;44.530;0.094;2024-03-22T16:42:55;21.23;;;19.90;;
77535;SDS011;70085;44.530;0.094;2024-03-22T16:58:27;18.40;;;17.60;;
77535;SDS011;70085;44.530;0.094;2024-03-22T17:29:31;26.97;;;25.97;;
77535;SDS011;70085;44.530;0.094;2024-03-22T17:45:05;47.83;;;45.97;;
77535;SDS011;70085;44.530;0.094;2024-03-22T18:00:36;47.60;;;45.67;;
77535;SDS011;70085;44.530;0.094;2024-03-22T18:16:08;23.43;;;22.53;;
77535;SDS011;70085;44.530;0.094;2024-03-22T18:31:41;11.77;;;11.27;;
77535;SDS011;70085;44.530;0.094;2024-03-22T18:47:13;8.70;;;8.40;;
77535;SDS011;70085;44.530;0.094;2024-03-22T19:02:47;8.63;;;8.27;;
77535;SDS011;70085;44.530;0.094;2024-03-22T19:18:19;7.23;;;6.93;;
77535;SDS011;70085;44.530;0.094;2024-03-22T19:33:51;10.00;;;9.40;;
77535;SDS011;70085;44.530;0.094;2024-03-22T19:49:23;6.40;;;6.13;;
77535;SDS011;70085;44.530;0.094;2024-03-22T20:04:56;7.20;;;6.90;;
77535;SDS011;70085;44.530;0.094;2024-03-22T20:20:28;8.53;;;8.23;;
77535;SDS011;70085;44.530;0.094;2024-03-22T20:36:02;8.37;;;8.07;;
